sensor_id;sensor_type;location;lat;lon;timestamp;temperature;humidity
5128;DHT22;2582;48.770;9.190;2023-11-18T00:00:23;8.20;99.90
5128;DHT22;2582;48.770;9.190;2023-11-18T00:02:49;8.20;99.90
5128;DHT22;2582;48.770;9.190;2023-11-18T00:05:15;8.20;99.90
5128;DHT22;2582;48.770;9.190;2023-11-18T00:07:41;8.00;99.90
5128;DHT22;2582;48.770;9.190;2023-11-18T00:10:07;8.00;99.90
5128;DHT22;2582;48.770;9.190;2023-11-18T00:12:34;8.00;99.90
5128;DHT22;2582;48.770;9.190;2023-11-18T00:15:05;8.10;99.90
5128;DHT22;2582;48.770;9.190;2023-11-18T00:17:33;8.20;99.90
5128;DHT22;2582;48.770;9.190;2023-11-18T00:19:59;8.20;99.90
5128;DHT22;2582;48.770;9.190;2023-11-18T00:22:25;8.00;99.90
5128;DHT22;2582;48.770;9.190;2023-11-18T00:24:53;7.90;99.90
5128;DHT22;2582;48.770;9.190;2023-11-18T00:27:18;8.10;99.90
5128;DHT22;2582;48.770;9.190;2023-11-18T00:29:44;8.30;99.90
5128;DHT22;2582;48.770;9.190;2023-11-18T00:32:10;8.30;99.90
5128;DHT22;2582;48.770;9.190;2023-11-18T00:34:35;8.40;99.90
5128;DHT22;2582;48.770;9.190;2023-11-18T00:37:01;8.40;99.90
5128;DHT22;2582;48.770;9.190;2023-11-18T00:39:27;8.50;99.90
5128;DHT22;2582;48.770;9.190;2023-11-18T00:41:53;8.60;99.90
5128;DHT22;2582;48.770;9.190;2023-11-18T00:44:19;8.60;99.90
5128;DHT22;2582;48.770;9.190;2023-11-18T00:46:45;8.60;99.90
5128;DHT22;2582;48.770;9.190;2023-11-18T00:49:10;8.60;99.90
5128;DHT22;2582;48.770;9.190;2023-11-18T00:51:39;8.60;99.90
5128;DHT22;2582;48.770;9.190;2023-11-18T00:54:05;8.60;99.90
5128;DHT22;2582;48.770;9.190;2023-11-18T00:56:33;8.60;99.90
5128;DHT22;2582;48.770;9.190;2023-11-18T00:58:59;8.60;99.90
5128;DHT22;2582;48.770;9.190;2023-11-18T01:01:26;8.70;99.90
5128;DHT22;2582;48.770;9.190;2023-11-18T01:03:52;8.70;99.90
5128;DHT22;2582;48.770;9.190;2023-11-18T01:06:19;8.60;99.90
5128;DHT22;2582;48.770;9.190;2023-11-18T01:08:45;8.60;99.90
5128;DHT22;2582;48.770;9.190;2023-11-18T01:11:15;8.70;99.90
5128;DHT22;2582;48.770;9.190;2023-11-18T01:13:41;8.70;99.90
5128;DHT22;2582;48.770;9.190;2023-11-18T01:16:08;8.60;99.90
5128;DHT22;2582;48.770;9.190;2023-11-18T01:18:34;8.50;99.90
5128;DHT22;2582;48.770;9.190;2023-11-18T01:21:00;8.60;99.90
5128;DHT22;2582;48.770;9.190;2023-11-18T01:23:25;8.60;99.90
5128;DHT22;2582;48.770;9.190;2023-11-18T01:25:51;8.70;99.90
5128;DHT22;2582;48.770;9.190;2023-11-18T01:28:17;8.70;99.90
5128;DHT22;2582;48.770;9.190;2023-11-18T01:30:42;8.80;99.90
5128;DHT22;2582;48.770;9.190;2023-11-18T01:33:10;8.80;99.90
5128;DHT22;2582;48.770;9.190;2023-11-18T01:35:35;8.60;99.90
5128;DHT22;2582;48.770;9.190;2023-11-18T01:38:01;8.50;99.90
5128;DHT22;2582;48.770;9.190;2023-11-18T01:40:27;8.40;99.90
5128;DHT22;2582;48.770;9.190;2023-11-18T01:42:56;8.40;99.90
5128;DHT22;2582;48.770;9.190;2023-11-18T01:45:21;8.50;99.90
5128;DHT22;2582;48.770;9.190;2023-11-18T01:47:47;8.60;99.90
5128;DHT22;2582;48.770;9.190;2023-11-18T01:50:16;8.60;99.90
5128;DHT22;2582;48.770;9.190;2023-11-18T01:52:43;8.50;99.90
5128;DHT22;2582;48.770;9.190;2023-11-18T01:55:09;8.60;99.90
5128;DHT22;2582;48.770;9.190;2023-11-18T01:57:35;8.70;99.90
5128;DHT22;2582;48.770;9.190;2023-11-18T02:00:03;8.70;99.90
5128;DHT22;2582;48.770;9.190;2023-11-18T02:02:32;8.70;99.90
5128;DHT22;2582;48.770;9.190;2023-11-18T02:04:59;8.70;99.90
5128;DHT22;2582;48.770;9.190;2023-11-18T02:07:27;8.30;99.90
5128;DHT22;2582;48.770;9.190;2023-11-18T02:09:54;8.30;99.90
5128;DHT22;2582;48.770;9.190;2023-11-18T02:12:25;8.40;99.90
5128;DHT22;2582;48.770;9.190;2023-11-18T02:14:55;8.50;99.90
5128;DHT22;2582;48.770;9.190;2023-11-18T02:17:23;8.50;99.90
5128;DHT22;2582;48.770;9.190;2023-11-18T02:19:58;8.50;99.90
5128;DHT22;2582;48.770;9.190;2023-11-18T02:22:25;8.60;99.90
5128;DHT22;2582;48.770;9.190;2023-11-18T02:24:51;8.60;99.90
5128;DHT22;2582;48.770;9.190;2023-11-18T02:27:18;8.60;99.90
5128;DHT22;2582;48.770;9.190;2023-11-18T02:29:47;8.60;99.90
5128;DHT22;2582;48.770;9.190;2023-11-18T02:35:01;8.70;99.90
5128;DHT22;2582;48.770;9.190;2023-11-18T02:37:29;8.70;99.90
5128;DHT22;2582;48.770;9.190;2023-11-18T02:40:03;8.70;99.90
5128;DHT22;2582;48.770;9.190;2023-11-18T02:42:35;8.60;99.90
5128;DHT22;2582;48.770;9.190;2023-11-18T02:45:02;8.50;99.90
5128;DHT22;2582;48.770;9.190;2023-11-18T02:47:28;8.70;99.90
5128;DHT22;2582;48.770;9.190;2023-11-18T02:49:55;8.70;99.90
5128;DHT22;2582;48.770;9.190;2023-11-18T02:52:32;8.70;99.90
5128;DHT22;2582;48.770;9.190;2023-11-18T02:54:58;8.70;99.90
5128;DHT22;2582;48.770;9.190;2023-11-18T02:57:24;8.70;99.90
5128;DHT22;2582;48.770;9.190;2023-11-18T02:59:49;8.70;99.90
5128;DHT22;2582;48.770;9.190;2023-11-18T03:02:15;8.70;99.90
5128;DHT22;2582;48.770;9.190;2023-11-18T03:04:41;8.60;99.90
5128;DHT22;2582;48.770;9.190;2023-11-18T03:07:08;8.50;99.90
5128;DHT22;2582;48.770;9.190;2023-11-18T03:09:33;8.40;99.90
5128;DHT22;2582;48.770;9.190;2023-11-18T03:12:00;8.20;99.90
5128;DHT22;2582;48.770;9.190;2023-11-18T03:14:25;8.10;99.90
5128;DHT22;2582;48.770;9.190;2023-11-18T03:16:51;8.00;99.90
5128;DHT22;2582;48.770;9.190;2023-11-18T03:19:17;8.00;99.90
5128;DHT22;2582;48.770;9.190;2023-11-18T03:21:44;7.90;99.90
5128;DHT22;2582;48.770;9.190;2023-11-18T03:24:15;7.90;99.90
5128;DHT22;2582;48.770;9.190;2023-11-18T03:26:41;7.70;99.90
5128;DHT22;2582;48.770;9.190;2023-11-18T03:29:07;7.70;99.90
5128;DHT22;2582;48.770;9.190;2023-11-18T03:31:32;7.60;99.90
5128;DHT22;2582;48.770;9.190;2023-11-18T03:33:58;7.50;99.90
5128;DHT22;2582;48.770;9.190;2023-11-18T03:36:24;7.40;99.90
5128;DHT22;2582;48.770;9.190;2023-11-18T03:38:49;7.50;99.90
5128;DHT22;2582;48.770;9.190;2023-11-18T03:41:15;7.60;99.90
5128;DHT22;2582;48.770;9.190;2023-11-18T03:43:41;7.50;99.90
5128;DHT22;2582;48.770;9.190;2023-11-18T03:46:06;7.60;99.90
5128;DHT22;2582;48.770;9.190;2023-11-18T03:48:32;7.60;99.90
5128;DHT22;2582;48.770;9.190;2023-11-18T03:50:58;7.60;99.90
5128;DHT22;2582;48.770;9.190;2023-11-18T03:53:24;7.60;99.90
5128;DHT22;2582;48.770;9.190;2023-11-18T03:55:49;7.50;99.90
5128;DHT22;2582;48.770;9.190;2023-11-18T03:58:17;7.50;99.90
5128;DHT22;2582;48.770;9.190;2023-11-18T04:00:42;7.60;99.90
5128;DHT22;2582;48.770;9.190;2023-11-18T04:03:08;7.70;99.90
5128;DHT22;2582;48.770;9.190;2023-11-18T04:05:35;7.70;99.90
5128;DHT22;2582;48.770;9.190;2023-11-18T04:08:01;7.70;99.90
5128;DHT22;2582;48.770;9.190;2023-11-18T04:10:27;7.70;99.90
5128;DHT22;2582;48.770;9.190;2023-11-18T04:12:52;7.70;99.90
5128;DHT22;2582;48.770;9.190;2023-11-18T04:15:18;7.70;99.90
5128;DHT22;2582;48.770;9.190;2023-11-18T04:17:43;7.70;99.90
5128;DHT22;2582;48.770;9.190;2023-11-18T04:20:10;7.70;99.90
5128;DHT22;2582;48.770;9.190;2023-11-18T04:22:43;7.70;99.90
5128;DHT22;2582;48.770;9.190;2023-11-18T04:25:12;7.70;99.90
5128;DHT22;2582;48.770;9.190;2023-11-18T04:27:38;7.70;99.90
5128;DHT22;2582;48.770;9.190;2023-11-18T04:30:04;7.70;99.90
5128;DHT22;2582;48.770;9.190;2023-11-18T04:32:30;7.60;99.90
5128;DHT22;2582;48.770;9.190;2023-11-18T04:34:59;7.60;99.90
5128;DHT22;2582;48.770;9.190;2023-11-18T04:37:25;7.50;99.90
5128;DHT22;2582;48.770;9.190;2023-11-18T04:39:51;7.50;99.90
5128;DHT22;2582;48.770;9.190;2023-11-18T04:42:17;7.50;99.90
5128;DHT22;2582;48.770;9.190;2023-11-18T04:44:43;7.50;99.90
5128;DHT22;2582;48.770;9.190;2023-11-18T04:47:09;7.50;99.90
5128;DHT22;2582;48.770;9.190;2023-11-18T04:49:36;7.40;99.90
5128;DHT22;2582;48.770;9.190;2023-11-18T04:52:02;7.40;99.90
5128;DHT22;2582;48.770;9.190;2023-11-18T04:54:27;7.30;99.90
5128;DHT22;2582;48.770;9.190;2023-11-18T04:56:53;7.20;99.90
5128;DHT22;2582;48.770;9.190;2023-11-18T04:59:18;7.20;99.90
5128;DHT22;2582;48.770;9.190;2023-11-18T05:01:44;7.00;99.90
5128;DHT22;2582;48.770;9.190;2023-11-18T05:04:10;7.10;99.90
5128;DHT22;2582;48.770;9.190;2023-11-18T05:06:36;7.10;99.90
5128;DHT22;2582;48.770;9.190;2023-11-18T05:09:01;7.00;99.90
5128;DHT22;2582;48.770;9.190;2023-11-18T05:11:27;7.00;99.90
5128;DHT22;2582;48.770;9.190;2023-11-18T05:13:52;7.20;99.90
5128;DHT22;2582;48.770;9.190;2023-11-18T05:16:19;7.30;99.90
5128;DHT22;2582;48.770;9.190;2023-11-18T05:18:44;7.30;99.90
5128;DHT22;2582;48.770;9.190;2023-11-18T05:21:10;7.30;99.90
5128;DHT22;2582;48.770;9.190;2023-11-18T05:23:36;7.30;99.90
5128;DHT22;2582;48.770;9.190;2023-11-18T05:26:02;7.20;99.90
5128;DHT22;2582;48.770;9.190;2023-11-18T05:28:31;7.20;99.90
5128;DHT22;2582;48.770;9.190;2023-11-18T05:30:57;7.30;99.90
5128;DHT22;2582;48.770;9.190;2023-11-18T05:33:27;7.30;99.90
5128;DHT22;2582;48.770;9.190;2023-11-18T05:35:54;7.30;99.90
5128;DHT22;2582;48.770;9.190;2023-11-18T05:38:20;7.40;99.90
5128;DHT22;2582;48.770;9.190;2023-11-18T05:40:50;7.40;99.90
5128;DHT22;2582;48.770;9.190;2023-11-18T05:43:25;7.40;99.90
5128;DHT22;2582;48.770;9.190;2023-11-18T05:45:56;7.40;99.90
5128;DHT22;2582;48.770;9.190;2023-11-18T05:48:43;7.40;99.90
5128;DHT22;2582;48.770;9.190;2023-11-18T05:51:09;7.40;99.90
5128;DHT22;2582;48.770;9.190;2023-11-18T05:53:42;7.50;99.90
5128;DHT22;2582;48.770;9.190;2023-11-18T05:56:15;7.50;99.90
5128;DHT22;2582;48.770;9.190;2023-11-18T05:58:43;7.40;99.90
5128;DHT22;2582;48.770;9.190;2023-11-18T06:01:09;7.40;99.90
5128;DHT22;2582;48.770;9.190;2023-11-18T06:03:36;7.40;99.90
5128;DHT22;2582;48.770;9.190;2023-11-18T06:06:09;7.30;99.90
5128;DHT22;2582;48.770;9.190;2023-11-18T06:08:35;7.20;99.90
5128;DHT22;2582;48.770;9.190;2023-11-18T06:11:01;7.20;99.90
5128;DHT22;2582;48.770;9.190;2023-11-18T06:16:41;7.00;99.90
5128;DHT22;2582;48.770;9.190;2023-11-18T06:19:01;7.00;99.90
5128;DHT22;2582;48.770;9.190;2023-11-18T06:21:31;6.90;99.90
5128;DHT22;2582;48.770;9.190;2023-11-18T06:23:58;6.80;99.90
5128;DHT22;2582;48.770;9.190;2023-11-18T06:26:24;6.80;99.90
5128;DHT22;2582;48.770;9.190;2023-11-18T06:28:54;6.80;99.90
5128;DHT22;2582;48.770;9.190;2023-11-18T06:31:20;6.70;99.90
5128;DHT22;2582;48.770;9.190;2023-11-18T06:33:47;6.70;99.90
5128;DHT22;2582;48.770;9.190;2023-11-18T06:38:51;6.70;99.90
5128;DHT22;2582;48.770;9.190;2023-11-18T06:41:18;6.70;99.90
5128;DHT22;2582;48.770;9.190;2023-11-18T06:43:45;6.60;99.90
5128;DHT22;2582;48.770;9.190;2023-11-18T06:46:24;6.40;99.90
5128;DHT22;2582;48.770;9.190;2023-11-18T06:48:52;6.30;99.90
5128;DHT22;2582;48.770;9.190;2023-11-18T06:51:26;6.20;99.90
5128;DHT22;2582;48.770;9.190;2023-11-18T06:53:53;6.30;99.90
5128;DHT22;2582;48.770;9.190;2023-11-18T06:56:26;6.30;99.90
5128;DHT22;2582;48.770;9.190;2023-11-18T06:58:53;6.40;99.90
5128;DHT22;2582;48.770;9.190;2023-11-18T07:01:18;6.40;99.90
5128;DHT22;2582;48.770;9.190;2023-11-18T07:03:45;6.50;99.90
5128;DHT22;2582;48.770;9.190;2023-11-18T07:06:17;6.60;99.90
5128;DHT22;2582;48.770;9.190;2023-11-18T07:08:51;6.70;99.90
5128;DHT22;2582;48.770;9.190;2023-11-18T07:11:17;6.80;99.90
5128;DHT22;2582;48.770;9.190;2023-11-18T07:13:43;6.80;99.90
5128;DHT22;2582;48.770;9.190;2023-11-18T07:16:09;7.00;99.90
5128;DHT22;2582;48.770;9.190;2023-11-18T07:18:36;6.90;99.90
5128;DHT22;2582;48.770;9.190;2023-11-18T07:21:03;7.10;99.90
5128;DHT22;2582;48.770;9.190;2023-11-18T07:23:31;7.20;99.90
5128;DHT22;2582;48.770;9.190;2023-11-18T07:25:56;7.00;99.90
5128;DHT22;2582;48.770;9.190;2023-11-18T07:28:23;7.00;99.90
5128;DHT22;2582;48.770;9.190;2023-11-18T07:30:48;7.10;99.90
5128;DHT22;2582;48.770;9.190;2023-11-18T07:33:15;7.10;99.90
5128;DHT22;2582;48.770;9.190;2023-11-18T07:35:41;7.20;99.90
5128;DHT22;2582;48.770;9.190;2023-11-18T07:38:07;7.00;99.90
5128;DHT22;2582;48.770;9.190;2023-11-18T07:40:33;7.00;99.90
5128;DHT22;2582;48.770;9.190;2023-11-18T07:43:00;7.10;99.90
5128;DHT22;2582;48.770;9.190;2023-11-18T07:45:34;7.20;99.90
5128;DHT22;2582;48.770;9.190;2023-11-18T07:48:03;7.30;99.90
5128;DHT22;2582;48.770;9.190;2023-11-18T07:50:37;7.50;99.90
5128;DHT22;2582;48.770;9.190;2023-11-18T07:53:03;7.60;99.90
5128;DHT22;2582;48.770;9.190;2023-11-18T07:55:32;7.80;99.90
5128;DHT22;2582;48.770;9.190;2023-11-18T07:58:00;7.70;99.90
5128;DHT22;2582;48.770;9.190;2023-11-18T08:00:27;7.70;99.90
5128;DHT22;2582;48.770;9.190;2023-11-18T08:02:56;8.00;99.90
5128;DHT22;2582;48.770;9.190;2023-11-18T08:05:22;8.10;99.90
5128;DHT22;2582;48.770;9.190;2023-11-18T08:07:49;8.30;99.90
5128;DHT22;2582;48.770;9.190;2023-11-18T08:10:14;8.10;99.90
5128;DHT22;2582;48.770;9.190;2023-11-18T08:12:44;8.20;99.90
5128;DHT22;2582;48.770;9.190;2023-11-18T08:15:10;8.40;99.90
5128;DHT22;2582;48.770;9.190;2023-11-18T08:17:36;8.60;99.90
5128;DHT22;2582;48.770;9.190;2023-11-18T08:20:02;8.50;99.90
5128;DHT22;2582;48.770;9.190;2023-11-18T08:22:39;8.70;99.90
5128;DHT22;2582;48.770;9.190;2023-11-18T08:25:05;8.70;99.90
5128;DHT22;2582;48.770;9.190;2023-11-18T08:27:34;8.80;99.90
5128;DHT22;2582;48.770;9.190;2023-11-18T08:29:59;9.00;99.90
5128;DHT22;2582;48.770;9.190;2023-11-18T08:32:25;8.90;99.90
5128;DHT22;2582;48.770;9.190;2023-11-18T08:34:51;8.90;99.90
5128;DHT22;2582;48.770;9.190;2023-11-18T08:37:16;9.00;99.90
5128;DHT22;2582;48.770;9.190;2023-11-18T08:39:42;8.70;99.90
5128;DHT22;2582;48.770;9.190;2023-11-18T08:42:07;8.90;99.90
5128;DHT22;2582;48.770;9.190;2023-11-18T08:44:33;9.20;99.90
5128;DHT22;2582;48.770;9.190;2023-11-18T08:46:59;9.30;99.90
5128;DHT22;2582;48.770;9.190;2023-11-18T08:49:25;9.20;99.90
5128;DHT22;2582;48.770;9.190;2023-11-18T08:51:50;9.20;99.90
5128;DHT22;2582;48.770;9.190;2023-11-18T08:54:21;9.40;99.90
5128;DHT22;2582;48.770;9.190;2023-11-18T08:57:03;9.30;99.90
5128;DHT22;2582;48.770;9.190;2023-11-18T08:59:29;9.10;99.90
5128;DHT22;2582;48.770;9.190;2023-11-18T09:01:58;9.20;99.90
5128;DHT22;2582;48.770;9.190;2023-11-18T09:04:25;9.40;99.90
5128;DHT22;2582;48.770;9.190;2023-11-18T09:06:51;9.50;99.90
5128;DHT22;2582;48.770;9.190;2023-11-18T09:09:23;9.40;99.90
5128;DHT22;2582;48.770;9.190;2023-11-18T09:11:54;9.50;99.90
5128;DHT22;2582;48.770;9.190;2023-11-18T09:14:25;9.50;99.90
5128;DHT22;2582;48.770;9.190;2023-11-18T09:16:52;9.40;99.90
5128;DHT22;2582;48.770;9.190;2023-11-18T09:19:20;9.30;99.90
5128;DHT22;2582;48.770;9.190;2023-11-18T09:21:47;9.20;99.90
5128;DHT22;2582;48.770;9.190;2023-11-18T09:24:12;9.50;99.90
5128;DHT22;2582;48.770;9.190;2023-11-18T09:26:39;9.60;99.90
5128;DHT22;2582;48.770;9.190;2023-11-18T09:29:06;9.80;99.90
5128;DHT22;2582;48.770;9.190;2023-11-18T09:31:35;9.90;99.90
5128;DHT22;2582;48.770;9.190;2023-11-18T09:34:01;9.90;99.90
5128;DHT22;2582;48.770;9.190;2023-11-18T09:36:31;9.70;99.90
5128;DHT22;2582;48.770;9.190;2023-11-18T09:38:59;9.80;99.90
5128;DHT22;2582;48.770;9.190;2023-11-18T09:41:24;10.00;99.90
5128;DHT22;2582;48.770;9.190;2023-11-18T09:43:52;10.40;99.90
5128;DHT22;2582;48.770;9.190;2023-11-18T09:46:24;10.70;99.90
5128;DHT22;2582;48.770;9.190;2023-11-18T09:49:12;10.90;99.90
5128;DHT22;2582;48.770;9.190;2023-11-18T09:51:43;11.00;99.90
5128;DHT22;2582;48.770;9.190;2023-11-18T09:54:30;10.70;99.90
5128;DHT22;2582;48.770;9.190;2023-11-18T09:57:10;10.40;99.90
5128;DHT22;2582;48.770;9.190;2023-11-18T09:59:58;10.60;99.90
5128;DHT22;2582;48.770;9.190;2023-11-18T10:02:39;10.80;99.90
5128;DHT22;2582;48.770;9.190;2023-11-18T10:05:06;10.80;99.90
5128;DHT22;2582;48.770;9.190;2023-11-18T10:07:41;10.80;99.90
5128;DHT22;2582;48.770;9.190;2023-11-18T10:10:08;11.20;99.90
5128;DHT22;2582;48.770;9.190;2023-11-18T10:12:44;11.20;99.90
5128;DHT22;2582;48.770;9.190;2023-11-18T10:15:13;11.30;99.90
5128;DHT22;2582;48.770;9.190;2023-11-18T10:17:43;11.50;99.90
5128;DHT22;2582;48.770;9.190;2023-11-18T10:20:43;11.60;99.90
5128;DHT22;2582;48.770;9.190;2023-11-18T10:23:15;12.00;99.90
5128;DHT22;2582;48.770;9.190;2023-11-18T10:25:48;11.60;99.90
5128;DHT22;2582;48.770;9.190;2023-11-18T10:28:27;11.80;99.90
5128;DHT22;2582;48.770;9.190;2023-11-18T10:30:57;12.00;99.90
5128;DHT22;2582;48.770;9.190;2023-11-18T10:33:41;11.80;99.90
5128;DHT22;2582;48.770;9.190;2023-11-18T10:36:22;11.90;99.90
5128;DHT22;2582;48.770;9.190;2023-11-18T10:38:49;11.90;99.90
5128;DHT22;2582;48.770;9.190;2023-11-18T10:41:18;11.70;99.90
5128;DHT22;2582;48.770;9.190;2023-11-18T10:43:44;11.60;99.90
5128;DHT22;2582;48.770;9.190;2023-11-18T10:46:15;11.80;99.90
5128;DHT22;2582;48.770;9.190;2023-11-18T10:48:46;11.80;99.90
5128;DHT22;2582;48.770;9.190;2023-11-18T10:51:18;12.00;99.90
5128;DHT22;2582;48.770;9.190;2023-11-18T10:53:47;12.10;99.90
5128;DHT22;2582;48.770;9.190;2023-11-18T10:56:24;12.10;99.90
5128;DHT22;2582;48.770;9.190;2023-11-18T10:58:53;12.30;99.90
5128;DHT22;2582;48.770;9.190;2023-11-18T11:01:30;12.30;99.90
5128;DHT22;2582;48.770;9.190;2023-11-18T11:03:59;12.30;99.90
5128;DHT22;2582;48.770;9.190;2023-11-18T11:06:26;12.20;99.90
5128;DHT22;2582;48.770;9.190;2023-11-18T11:08:54;12.10;99.90
5128;DHT22;2582;48.770;9.190;2023-11-18T11:11:21;12.10;99.90
5128;DHT22;2582;48.770;9.190;2023-11-18T11:14:01;11.90;99.90
5128;DHT22;2582;48.770;9.190;2023-11-18T11:16:37;11.90;99.90
5128;DHT22;2582;48.770;9.190;2023-11-18T11:19:04;11.90;99.90
5128;DHT22;2582;48.770;9.190;2023-11-18T11:21:43;12.00;99.90
5128;DHT22;2582;48.770;9.190;2023-11-18T11:24:24;12.30;99.90
5128;DHT22;2582;48.770;9.190;2023-11-18T11:27:07;12.70;99.90
5128;DHT22;2582;48.770;9.190;2023-11-18T11:29:37;12.90;99.90
5128;DHT22;2582;48.770;9.190;2023-11-18T11:32:26;13.20;99.90
5128;DHT22;2582;48.770;9.190;2023-11-18T11:34:59;12.90;99.90
5128;DHT22;2582;48.770;9.190;2023-11-18T11:37:32;12.60;99.90
5128;DHT22;2582;48.770;9.190;2023-11-18T11:40:00;12.40;99.90
5128;DHT22;2582;48.770;9.190;2023-11-18T11:42:31;12.20;99.90
5128;DHT22;2582;48.770;9.190;2023-11-18T11:44:57;12.50;99.90
5128;DHT22;2582;48.770;9.190;2023-11-18T11:47:25;12.40;99.90
5128;DHT22;2582;48.770;9.190;2023-11-18T11:50:07;12.20;99.90
5128;DHT22;2582;48.770;9.190;2023-11-18T11:52:43;12.20;99.90
5128;DHT22;2582;48.770;9.190;2023-11-18T11:55:18;12.10;99.90
5128;DHT22;2582;48.770;9.190;2023-11-18T11:57:52;11.60;99.90
5128;DHT22;2582;48.770;9.190;2023-11-18T12:00:24;11.60;99.90
5128;DHT22;2582;48.770;9.190;2023-11-18T12:02:52;11.70;99.90
5128;DHT22;2582;48.770;9.190;2023-11-18T12:05:24;11.70;99.90
5128;DHT22;2582;48.770;9.190;2023-11-18T12:07:52;11.80;99.90
5128;DHT22;2582;48.770;9.190;2023-11-18T12:10:19;11.70;99.90
5128;DHT22;2582;48.770;9.190;2023-11-18T12:12:48;11.70;99.90
5128;DHT22;2582;48.770;9.190;2023-11-18T12:15:14;11.40;99.90
5128;DHT22;2582;48.770;9.190;2023-11-18T12:20:42;11.20;99.90
5128;DHT22;2582;48.770;9.190;2023-11-18T12:23:10;11.10;99.90
5128;DHT22;2582;48.770;9.190;2023-11-18T12:25:46;11.00;99.90
5128;DHT22;2582;48.770;9.190;2023-11-18T12:28:17;10.80;99.90
5128;DHT22;2582;48.770;9.190;2023-11-18T12:30:47;10.80;99.90
5128;DHT22;2582;48.770;9.190;2023-11-18T12:33:25;10.80;99.90
5128;DHT22;2582;48.770;9.190;2023-11-18T12:41:38;10.60;99.90
5128;DHT22;2582;48.770;9.190;2023-11-18T12:46:54;10.70;99.90
5128;DHT22;2582;48.770;9.190;2023-11-18T12:49:40;10.80;99.90
5128;DHT22;2582;48.770;9.190;2023-11-18T12:52:10;10.70;99.90
5128;DHT22;2582;48.770;9.190;2023-11-18T12:54:37;10.50;99.90
5128;DHT22;2582;48.770;9.190;2023-11-18T12:57:04;10.50;99.90
5128;DHT22;2582;48.770;9.190;2023-11-18T12:59:33;10.50;99.90
5128;DHT22;2582;48.770;9.190;2023-11-18T13:01:59;10.60;99.90
5128;DHT22;2582;48.770;9.190;2023-11-18T13:04:30;10.70;99.90
5128;DHT22;2582;48.770;9.190;2023-11-18T13:06:57;10.80;99.90
5128;DHT22;2582;48.770;9.190;2023-11-18T13:09:23;10.90;99.90
5128;DHT22;2582;48.770;9.190;2023-11-18T13:11:58;10.70;99.90
5128;DHT22;2582;48.770;9.190;2023-11-18T13:14:26;10.70;99.90
5128;DHT22;2582;48.770;9.190;2023-11-18T13:16:54;10.80;99.90
5128;DHT22;2582;48.770;9.190;2023-11-18T13:19:28;10.80;99.90
5128;DHT22;2582;48.770;9.190;2023-11-18T13:22:01;11.10;99.90
5128;DHT22;2582;48.770;9.190;2023-11-18T13:24:29;11.30;99.90
5128;DHT22;2582;48.770;9.190;2023-11-18T13:26:55;11.10;99.90
5128;DHT22;2582;48.770;9.190;2023-11-18T13:29:24;11.20;99.90
5128;DHT22;2582;48.770;9.190;2023-11-18T13:31:51;10.80;99.90
5128;DHT22;2582;48.770;9.190;2023-11-18T13:34:20;10.50;99.90
5128;DHT22;2582;48.770;9.190;2023-11-18T13:36:49;10.50;99.90
5128;DHT22;2582;48.770;9.190;2023-11-18T13:39:19;10.60;99.90
5128;DHT22;2582;48.770;9.190;2023-11-18T13:41:49;10.50;99.90
5128;DHT22;2582;48.770;9.190;2023-11-18T13:44:37;10.40;99.90
5128;DHT22;2582;48.770;9.190;2023-11-18T13:47:10;10.50;99.90
5128;DHT22;2582;48.770;9.190;2023-11-18T13:49:39;10.50;99.90
5128;DHT22;2582;48.770;9.190;2023-11-18T13:52:09;10.40;99.90
5128;DHT22;2582;48.770;9.190;2023-11-18T13:54:39;10.40;99.90
5128;DHT22;2582;48.770;9.190;2023-11-18T13:57:08;10.40;99.90
5128;DHT22;2582;48.770;9.190;2023-11-18T13:59:35;10.40;99.90
5128;DHT22;2582;48.770;9.190;2023-11-18T14:02:00;10.20;99.90
5128;DHT22;2582;48.770;9.190;2023-11-18T14:04:30;10.20;99.90
5128;DHT22;2582;48.770;9.190;2023-11-18T14:07:03;10.00;99.90
5128;DHT22;2582;48.770;9.190;2023-11-18T14:09:34;10.10;99.90
5128;DHT22;2582;48.770;9.190;2023-11-18T14:12:06;10.20;99.90
5128;DHT22;2582;48.770;9.190;2023-11-18T14:14:32;10.30;99.90
5128;DHT22;2582;48.770;9.190;2023-11-18T14:16:58;10.50;99.90
5128;DHT22;2582;48.770;9.190;2023-11-18T14:19:30;10.60;99.90
5128;DHT22;2582;48.770;9.190;2023-11-18T14:21:56;10.70;99.90
5128;DHT22;2582;48.770;9.190;2023-11-18T14:24:22;10.70;99.90
5128;DHT22;2582;48.770;9.190;2023-11-18T14:26:56;10.60;99.90
5128;DHT22;2582;48.770;9.190;2023-11-18T14:29:22;10.70;99.90
5128;DHT22;2582;48.770;9.190;2023-11-18T14:31:48;10.40;99.90
5128;DHT22;2582;48.770;9.190;2023-11-18T14:34:13;10.40;99.90
5128;DHT22;2582;48.770;9.190;2023-11-18T14:36:40;10.50;99.90
5128;DHT22;2582;48.770;9.190;2023-11-18T14:39:06;10.40;99.90
5128;DHT22;2582;48.770;9.190;2023-11-18T14:41:38;10.30;99.90
5128;DHT22;2582;48.770;9.190;2023-11-18T14:44:04;10.10;99.90
5128;DHT22;2582;48.770;9.190;2023-11-18T14:46:30;10.20;99.90
5128;DHT22;2582;48.770;9.190;2023-11-18T14:48:59;10.30;99.90
5128;DHT22;2582;48.770;9.190;2023-11-18T14:51:24;10.30;99.90
5128;DHT22;2582;48.770;9.190;2023-11-18T14:53:51;10.40;99.90
5128;DHT22;2582;48.770;9.190;2023-11-18T14:56:17;10.30;99.90
5128;DHT22;2582;48.770;9.190;2023-11-18T14:58:43;10.20;99.90
5128;DHT22;2582;48.770;9.190;2023-11-18T15:01:14;10.20;99.90
5128;DHT22;2582;48.770;9.190;2023-11-18T15:03:40;10.20;99.90
5128;DHT22;2582;48.770;9.190;2023-11-18T15:06:06;10.10;99.90
5128;DHT22;2582;48.770;9.190;2023-11-18T15:08:32;10.20;99.90
5128;DHT22;2582;48.770;9.190;2023-11-18T15:10:58;10.10;99.90
5128;DHT22;2582;48.770;9.190;2023-11-18T15:13:24;10.20;99.90
5128;DHT22;2582;48.770;9.190;2023-11-18T15:15:50;10.10;99.90
5128;DHT22;2582;48.770;9.190;2023-11-18T15:18:15;10.20;99.90
5128;DHT22;2582;48.770;9.190;2023-11-18T15:20:51;10.20;99.90
5128;DHT22;2582;48.770;9.190;2023-11-18T15:23:18;10.20;99.90
5128;DHT22;2582;48.770;9.190;2023-11-18T15:25:45;10.30;99.90
5128;DHT22;2582;48.770;9.190;2023-11-18T15:28:11;10.30;99.90
5128;DHT22;2582;48.770;9.190;2023-11-18T15:30:37;10.30;99.90
5128;DHT22;2582;48.770;9.190;2023-11-18T15:33:03;10.30;99.90
5128;DHT22;2582;48.770;9.190;2023-11-18T15:35:28;10.30;99.90
5128;DHT22;2582;48.770;9.190;2023-11-18T15:37:54;10.30;99.90
5128;DHT22;2582;48.770;9.190;2023-11-18T15:40:20;10.30;99.90
5128;DHT22;2582;48.770;9.190;2023-11-18T15:42:50;10.20;99.90
5128;DHT22;2582;48.770;9.190;2023-11-18T15:45:20;10.10;99.90
5128;DHT22;2582;48.770;9.190;2023-11-18T15:47:46;10.20;99.90
5128;DHT22;2582;48.770;9.190;2023-11-18T15:50:14;10.30;99.90
5128;DHT22;2582;48.770;9.190;2023-11-18T15:52:47;10.30;99.90
5128;DHT22;2582;48.770;9.190;2023-11-18T15:55:14;10.20;99.90
5128;DHT22;2582;48.770;9.190;2023-11-18T15:57:52;10.20;99.90
5128;DHT22;2582;48.770;9.190;2023-11-18T16:00:20;10.30;99.90
5128;DHT22;2582;48.770;9.190;2023-11-18T16:02:49;10.30;99.90
5128;DHT22;2582;48.770;9.190;2023-11-18T16:05:17;10.40;99.90
5128;DHT22;2582;48.770;9.190;2023-11-18T16:07:47;10.20;99.90
5128;DHT22;2582;48.770;9.190;2023-11-18T16:10:14;10.20;99.90
5128;DHT22;2582;48.770;9.190;2023-11-18T16:12:56;10.30;99.90
5128;DHT22;2582;48.770;9.190;2023-11-18T16:15:23;10.30;99.90
5128;DHT22;2582;48.770;9.190;2023-11-18T16:17:50;10.30;99.90
5128;DHT22;2582;48.770;9.190;2023-11-18T16:20:17;10.40;99.90
5128;DHT22;2582;48.770;9.190;2023-11-18T16:22:44;10.30;99.90
5128;DHT22;2582;48.770;9.190;2023-11-18T16:25:19;10.20;99.90
5128;DHT22;2582;48.770;9.190;2023-11-18T16:27:50;10.20;99.90
5128;DHT22;2582;48.770;9.190;2023-11-18T16:30:17;10.20;99.90
5128;DHT22;2582;48.770;9.190;2023-11-18T16:32:43;10.20;99.90
5128;DHT22;2582;48.770;9.190;2023-11-18T16:35:10;10.10;99.90
5128;DHT22;2582;48.770;9.190;2023-11-18T16:37:38;10.20;99.90
5128;DHT22;2582;48.770;9.190;2023-11-18T16:40:05;10.20;99.90